Weather reports worldwide

Advertisment
San Fernando, Spain (8453): temperature & dewpoint: 27.06.2020 17:00:00 - 03.07.2020 17:00:00 (CEST)San Fernando, Spain (8453): wind speed & gusts: 27.06.2020 17:00:00 - 03.07.2020 17:00:00 (CEST)San Fernando, Spain (8453): wind direction: 27.06.2020 17:00:00 - 03.07.2020 17:00:00 (CEST)San Fernando, Spain (8453): reduced air pressure: 27.06.2020 17:00:00 - 03.07.2020 17:00:00 (CEST)San Fernando, Spain (8453): precipitation: 27.06.2020 17:00:00 - 03.07.2020 17:00:00 (CEST)
Date & Time tt [°C] td [°C] ff [km/h] ff [kn] fx [km/h] fx [kn] dd ppp [hPa] rr [mm]
03.07.2020 17:00:00 23,3 15,1 16 9 28 15 W 1017,8 0,0
03.07.2020 16:00:00 23,0 14,5 15 8 25 13 W 1018,1 0,0
03.07.2020 15:00:00 22,7 14,2 16 8 24 13 W 1018,3 0,0
03.07.2020 14:00:00 22,7 14,0 15 8 24 13 W 1018,8 -
03.07.2020 13:00:00 22,1 13,5 14 8 22 12 W 1018,9 0,0
03.07.2020 12:00:00 22,7 14,0 11 6 18 10 W 1018,7 0,0
03.07.2020 11:00:00 22,4 13,8 10 5 17 9 WNW 1018,6 0,0
03.07.2020 10:00:00 21,9 13,0 8 5 18 10 NW 1018,3 0,0
03.07.2020 09:00:00 21,5 13,9 9 5 20 11 NNW 1017,9 0,0
03.07.2020 08:00:00 21,2 13,7 7 4 13 7 NNW 1017,6 -
03.07.2020 07:00:00 20,9 13,4 4 2 12 6 N 1017,3 0,0
03.07.2020 06:00:00 20,2 18,3 2 1 6 3 NNE 1017,1 0,0
03.07.2020 05:00:00 20,7 19,0 3 2 10 6 ESE 1017,1 0,0
03.07.2020 04:00:00 21,0 19,1 3 2 16 9 ESE 1017,1 0,0
03.07.2020 03:00:00 21,4 19,0 8 4 18 10 SE 1017,6 0,0
03.07.2020 02:00:00 22,2 18,8 7 4 16 8 SSE 1017,7 -
03.07.2020 01:00:00 22,9 18,6 4 2 17 9 S 1017,8 0,0
03.07.2020 00:00:00 23,4 19,1 11 6 22 12 W 1017,2 0,0
02.07.2020 23:00:00 23,3 18,4 11 6 19 10 W 1016,6 0,0
02.07.2020 22:00:00 23,6 18,2 14 7 31 17 W 1016,2 0,0
02.07.2020 21:00:00 24,5 18,2 16 9 32 17 W 1015,9 0,0
02.07.2020 20:00:00 25,0 17,9 16 9 34 18 W 1015,9 -
02.07.2020 19:00:00 24,9 17,4 20 11 33 18 W 1015,9 0,0
02.07.2020 18:00:00 25,9 17,5 19 11 31 17 W 1016,4 0,0
02.07.2020 17:00:00 26,1 17,7 18 10 31 17 W 1016,3 0,0
02.07.2020 16:00:00 25,6 18,0 17 9 28 15 W 1016,9 0,0
02.07.2020 15:00:00 25,3 18,0 15 8 23 13 W 1017,2 0,0
02.07.2020 14:00:00 24,5 18,2 14 8 23 12 WNW 1017,3 -
02.07.2020 13:00:00 24,5 19,1 14 7 22 12 W 1017,3 0,0
02.07.2020 12:00:00 24,9 19,9 10 5 16 9 WNW 1017,1 0,0
02.07.2020 11:00:00 25,7 19,3 2 1 10 6 N 1016,8 0,0
02.07.2020 10:00:00 23,9 20,5 4 2 13 7 ESE 1016,5 0,0
02.07.2020 09:00:00 22,0 20,8 4 2 14 8 SSE 1016,1 0,0
02.07.2020 08:00:00 21,4 20,4 8 5 17 9 S 1015,7 -
02.07.2020 07:00:00 21,2 20,2 5 3 16 9 S 1015,4 0,0
02.07.2020 06:00:00 21,0 20,0 6 3 19 11 S 1014,9 0,0
02.07.2020 05:00:00 21,0 20,0 7 4 14 8 S 1015,0 0,0
02.07.2020 04:00:00 20,8 19,6 6 4 19 11 S 1015,2 0,0
02.07.2020 03:00:00 21,2 19,8 6 4 19 10 SSE 1015,1 0,0
02.07.2020 02:00:00 21,4 19,7 6 4 15 8 S 1015,4 -
02.07.2020 01:00:00 21,4 19,5 4 2 9 5 SW 1015,2 0,0
02.07.2020 00:00:00 21,9 19,4 6 4 14 7 WSW 1015,0 0,0
01.07.2020 23:00:00 21,9 19,6 7 4 15 8 WNW 1014,5 0,0
01.07.2020 22:00:00 22,1 19,8 9 5 16 9 W 1014,0 0,0
01.07.2020 21:00:00 22,7 19,5 10 6 19 10 W 1013,9 0,0
01.07.2020 20:00:00 23,4 18,9 12 7 19 10 W 1013,9 -
01.07.2020 19:00:00 24,2 18,6 10 5 19 11 W 1014,0 0,0
01.07.2020 18:00:00 24,2 17,7 14 7 21 11 W 1014,4 0,0
01.07.2020 17:00:00 24,0 17,7 14 8 23 12 W 1014,8 0,0
01.07.2020 16:00:00 24,3 17,3 12 6 23 13 W 1015,1 0,0
01.07.2020 15:00:00 23,9 16,9 11 6 22 12 W 1015,2 0,0
01.07.2020 14:00:00 23,9 16,9 13 7 22 12 W 1015,4 -
01.07.2020 13:00:00 23,0 16,6 9 5 19 11 WSW 1015,8 0,0
01.07.2020 12:00:00 23,2 16,7 10 5 24 13 SSW 1015,9 0,0
01.07.2020 11:00:00 22,3 17,2 8 5 26 14 SSW 1015,8 0,0
01.07.2020 10:00:00 21,8 17,8 7 4 21 11 S 1015,3 0,0
01.07.2020 09:00:00 20,8 17,8 7 4 19 10 SSW 1015,1 0,0
01.07.2020 08:00:00 20,3 17,9 9 5 19 10 S 1014,5 -
01.07.2020 07:00:00 20,6 18,5 8 4 18 10 SSW 1014,2 0,0
01.07.2020 06:00:00 20,8 19,1 6 3 19 11 SW 1013,8 0,0
01.07.2020 05:00:00 21,0 19,5 10 5 22 12 S 1013,6 0,0
01.07.2020 04:00:00 21,0 19,5 8 5 19 11 S 1013,7 0,0
01.07.2020 03:00:00 21,4 20,1 9 5 16 9 SSW 1014,2 0,0
01.07.2020 02:00:00 22,0 20,7 9 5 17 9 S 1014,3 -
01.07.2020 01:00:00 21,9 20,5 8 4 20 11 S 1014,3 0,0
01.07.2020 00:00:00 22,3 20,7 8 4 21 11 SSW 1014,0 0,0
30.06.2020 23:00:00 22,4 20,5 7 4 16 9 S 1013,4 0,0
30.06.2020 22:00:00 22,9 20,5 5 3 18 10 SW 1012,5 0,0
30.06.2020 21:00:00 24,7 20,2 9 5 18 10 SW 1011,9 0,0
30.06.2020 20:00:00 26,4 19,1 10 5 21 11 SW 1011,6 -
30.06.2020 19:00:00 27,0 18,0 13 7 26 14 SW 1011,7 0,0
30.06.2020 18:00:00 27,2 19,6 14 8 32 17 SW 1012,2 0,0
30.06.2020 17:00:00 25,9 19,8 16 9 37 20 SW 1012,1 0,0
30.06.2020 16:00:00 27,7 20,0 14 8 34 18 S 1012,4 0,0
30.06.2020 15:00:00 27,4 20,0 16 9 39 21 S 1012,7 0,0
30.06.2020 14:00:00 26,5 19,8 18 10 39 21 SSW 1012,9 -
30.06.2020 13:00:00 26,4 19,6 21 11 40 22 S 1012,9 0,0
30.06.2020 12:00:00 26,2 19,1 22 12 38 21 SSW 1012,9 0,0
30.06.2020 11:00:00 26,4 19,1 17 9 33 18 S 1012,5 0,0
30.06.2020 10:00:00 25,6 18,5 15 8 27 14 SSW 1012,2 0,0
30.06.2020 09:00:00 23,4 17,1 6 3 17 9 S 1012,0 0,0
30.06.2020 08:00:00 22,3 15,4 3 1 8 4 SE 1011,6 -
30.06.2020 07:00:00 22,1 10,9 6 3 12 7 SSE 1011,4 0,0
30.06.2020 06:00:00 22,9 11,0 9 5 17 9 E 1011,0 0,0
30.06.2020 05:00:00 24,2 10,9 9 5 19 10 ESE 1010,6 0,0
30.06.2020 04:00:00 24,0 11,0 7 4 14 7 ESE 1011,1 0,0
30.06.2020 03:00:00 24,2 10,9 5 3 18 10 ESE 1011,7 0,0
30.06.2020 02:00:00 24,8 10,6 9 5 22 12 ESE 1012,2 -
30.06.2020 01:00:00 25,4 10,8 12 7 31 17 ESE 1012,5 0,0
30.06.2020 00:00:00 25,7 11,4 11 6 27 15 ESE 1012,2 0,0
29.06.2020 23:00:00 25,0 16,7 3 1 9 5 N 1012,2 0,0
29.06.2020 22:00:00 25,6 15,9 5 3 14 7 WNW 1011,8 0,0
29.06.2020 21:00:00 27,0 16,9 7 4 15 8 W 1011,5 0,0
29.06.2020 20:00:00 26,7 16,9 11 6 19 10 WNW 1011,6 -
29.06.2020 19:00:00 26,8 17,0 10 6 19 11 W 1011,7 0,0
29.06.2020 18:00:00 26,7 17,8 13 7 23 13 W 1012,1 0,0
29.06.2020 17:00:00 26,6 18,5 13 7 26 14 W 1012,7 0,0
29.06.2020 16:00:00 28,0 17,2 13 7 19 10 W 1013,3 0,0
29.06.2020 15:00:00 27,3 17,1 11 6 19 10 WSW 1013,9 0,0
29.06.2020 14:00:00 26,8 17,0 10 6 19 11 WSW 1014,6 -
29.06.2020 13:00:00 26,2 17,5 12 7 20 11 WSW 1015,0 0,0
29.06.2020 12:00:00 25,9 17,8 7 4 18 10 WSW 1015,2 0,0
29.06.2020 11:00:00 25,1 17,5 7 4 13 7 WNW 1015,1 0,0
29.06.2020 10:00:00 26,7 15,1 3 1 14 7 SSE 1015,2 0,0
29.06.2020 09:00:00 24,1 16,1 6 3 12 6 ESE 1014,8 0,0
29.06.2020 08:00:00 22,6 14,7 6 3 16 9 ESE 1014,4 -
29.06.2020 07:00:00 22,8 15,2 8 4 16 9 SSE 1014,4 0,0
29.06.2020 06:00:00 23,2 14,7 5 3 9 5 SSE 1013,9 0,0
29.06.2020 05:00:00 22,9 16,0 3 2 6 3 SW 1014,4 0,0
29.06.2020 04:00:00 22,7 17,0 3 2 10 5 S 1015,0 0,0
29.06.2020 03:00:00 23,5 17,9 5 3 9 5 ESE 1015,3 0,0
29.06.2020 02:00:00 24,4 17,4 4 2 8 4 ESE 1015,5 -
29.06.2020 01:00:00 23,3 18,4 4 2 10 6 SE 1015,7 0,0
29.06.2020 00:00:00 23,7 18,5 4 2 8 5 ESE 1015,5 0,0
28.06.2020 23:00:00 23,6 18,5 1 1 13 7 W 1015,1 0,0
28.06.2020 22:00:00 23,7 18,8 7 4 19 10 W 1014,8 0,0
28.06.2020 21:00:00 24,9 19,1 12 6 19 11 W 1014,7 0,0
28.06.2020 20:00:00 25,8 19,0 13 7 18 10 W 1014,4 -
28.06.2020 19:00:00 25,8 19,4 13 7 22 12 W 1014,5 0,0
28.06.2020 18:00:00 25,5 18,9 13 7 23 13 W 1015,0 0,0
28.06.2020 17:00:00 25,0 19,8 13 7 24 13 W 1015,4 0,0
28.06.2020 16:00:00 26,7 19,3 15 8 24 13 W 1015,7 0,0
28.06.2020 15:00:00 28,1 19,3 10 5 21 11 W 1016,2 0,0
28.06.2020 14:00:00 26,4 19,6 6 4 16 9 SW 1016,7 -
28.06.2020 13:00:00 25,3 19,4 10 6 19 10 SW 1017,2 0,0
28.06.2020 12:00:00 24,7 19,8 8 4 16 9 WSW 1017,1 0,0
28.06.2020 11:00:00 24,4 19,9 1 0 8 4 S 1016,9 0,0
28.06.2020 10:00:00 21,5 20,3 4 2 11 6 ESE 1016,9 0,0
28.06.2020 09:00:00 20,2 19,2 6 4 16 8 ESE 1016,6 0,0
28.06.2020 08:00:00 19,5 18,3 7 4 14 8 ESE 1016,0 -
28.06.2020 07:00:00 19,6 18,2 6 4 16 9 ESE 1015,7 0,0
28.06.2020 06:00:00 19,9 18,5 8 5 14 7 ESE 1015,5 0,0
28.06.2020 05:00:00 20,1 18,2 4 2 12 7 SE 1015,6 0,0
28.06.2020 04:00:00 20,6 18,5 5 3 15 8 SSE 1015,8 0,0
28.06.2020 03:00:00 21,2 17,8 4 2 11 6 S 1016,1 0,0
28.06.2020 02:00:00 22,2 18,4 3 2 7 4 SSE 1016,4 -
28.06.2020 01:00:00 22,8 18,3 1 1 8 5 WNW 1016,6 0,0
28.06.2020 00:00:00 22,8 18,3 5 3 12 6 NW 1016,6 0,0
27.06.2020 23:00:00 22,4 17,8 10 5 21 11 NW 1016,3 0,0
27.06.2020 22:00:00 21,8 18,2 12 7 26 14 WNW 1015,8 0,0
27.06.2020 21:00:00 22,9 18,6 17 9 29 16 WNW 1015,6 0,0
27.06.2020 20:00:00 23,5 18,2 16 8 25 13 WNW 1015,8 -
27.06.2020 19:00:00 23,9 18,8 17 9 28 15 W 1016,0 0,0
27.06.2020 18:00:00 23,6 18,5 18 10 29 16 W 1016,6 0,0
27.06.2020 17:00:00 23,8 16,6 20 11 29 15 W 1016,9 0,0

tt = temperature
td = dewpoint
ff = wind speed
fx = gusts
dd = wind direction
ppp = reduced air pressure
rr = precipitation

Next stations